^^
Station Historical Data
Daily Summary for May 16, 2017 Units:  English    Metric   Both
« Previous Day
Next Day »
Daily Weekly Monthly Yearly Custom
  High: Low: Average:
Temperature: 78.7 °F 52.2 °F 65.3 °F
Dew Point: 50.4 °F 45.4 °F 47.6 °F
Humidity: 80% 33% 55%
Wind Speed: 3.0mph 0.0mph 0.7mph
Wind Gust: 12.0mph - -
Wind- - SW
Pressure: 30.03 in 29.92 in -
Precipitation: 0.00 in    
Historical Graphs
 
 
Tabular Data for May 16, 2017
Time Temperature Dew Point Pressure Wind Wind Speed Wind Gust Humidity Rainfall Rate (Hourly) Conditions
00:00 58.2 °F 46.1 °F 29.93 in NNE 2.0 mph 10.0 mph 64% 0.00 in CLR
00:15 57.9 °F 46.2 °F 29.94 in North 1.0 mph 7.0 mph 65% 0.00 in CLR
00:30 58.2 °F 46.5 °F 29.94 in North 2.0 mph 7.0 mph 65% 0.00 in CLR
00:45 58.3 °F 46.2 °F 29.94 in NNE 3.0 mph 12.0 mph 64% 0.00 in CLR
01:00 58.4 °F 46.3 °F 29.94 in North 3.0 mph 12.0 mph 64% 0.00 in CLR
02:15 56.7 °F 46.6 °F 29.94 in Calm   9.0 mph 69% 0.00 in CLR
02:30 56.4 °F 46.7 °F 29.93 in NNE 1.0 mph 7.0 mph 70% 0.00 in CLR
02:45 56.5 °F 46.8 °F 29.93 in Calm   6.0 mph 70% 0.00 in CLR
03:00 56.4 °F 46.7 °F 29.92 in North 1.0 mph 4.0 mph 70% 0.00 in CLR
03:15 56.0 °F 46.7 °F 29.93 in Calm   4.0 mph 71% 0.00 in CLR
03:30 55.9 °F 47.0 °F 29.93 in Calm   4.0 mph 72% 0.00 in CLR
03:45 55.6 °F 47.1 °F 29.94 in Calm   2.0 mph 73% 0.00 in CLR
04:00 54.8 °F 46.7 °F 29.95 in Calm   3.0 mph 74% 0.00 in CLR
04:15 53.9 °F 46.2 °F 29.95 in Calm   1.0 mph 75% 0.00 in CLR
04:30 53.2 °F 46.2 °F 29.96 in Calm   1.0 mph 77% 0.00 in CLR
04:45 52.7 °F 46.4 °F 29.96 in Calm   1.0 mph 79% 0.00 in CLR
05:00 52.3 °F 46.3 °F 29.97 in Calm   2.0 mph 80% 0.00 in CLR
05:15 52.2 °F 46.2 °F 29.98 in Calm   1.0 mph 80% 0.00 in FEW
05:30 52.8 °F 46.5 °F 29.98 in WSW 1.0 mph 3.0 mph 79% 0.00 in FEW
05:45 52.8 °F 46.5 °F 29.98 in Calm   2.0 mph 79% 0.00 in FEW
06:00 52.9 °F 46.2 °F 29.99 in Calm   2.0 mph 78% 0.00 in FEW
06:15 52.9 °F 46.6 °F 29.99 in Calm   1.0 mph 79% 0.00 in CLR
06:30 53.4 °F 46.7 °F 29.99 in Calm   1.0 mph 78% 0.00 in CLR
06:45 54.9 °F 46.8 °F 30.00 in SW 1.0 mph 7.0 mph 74% 0.00 in CLR
07:00 55.4 °F 47.2 °F 30.00 in Calm   4.0 mph 74% 0.00 in CLR
07:15 55.0 °F 47.2 °F 30.01 in Calm   3.0 mph 75% 0.00 in CLR
07:30 55.1 °F 47.3 °F 30.01 in SSE 2.0 mph 3.0 mph 75% 0.00 in CLR
07:45 56.8 °F 47.9 °F 30.01 in East 1.0 mph 4.0 mph 72% 0.00 in CLR
08:00 58.3 °F 47.8 °F 30.01 in Calm   4.0 mph 68% 0.00 in CLR
08:15 59.5 °F 47.8 °F 30.01 in NW 1.0 mph 5.0 mph 65% 0.00 in CLR
08:30 60.4 °F 48.2 °F 30.02 in WNW 2.0 mph 4.0 mph 64% 0.00 in CLR
08:45 61.3 °F 48.2 °F 30.03 in WNW 2.0 mph 4.0 mph 62% 0.00 in CLR
09:00 62.0 °F 47.5 °F 30.03 in WSW 1.0 mph 6.0 mph 59% 0.00 in CLR
09:15 62.8 °F 48.3 °F 30.03 in SW 1.0 mph 6.0 mph 59% 0.00 in CLR
09:30 63.3 °F 48.7 °F 30.03 in NNW 1.0 mph 4.0 mph 59% 0.00 in CLR
09:45 63.9 °F 48.3 °F 30.03 in West 3.0 mph 5.0 mph 57% 0.00 in CLR
10:00 63.3 °F 48.7 °F 30.03 in WNW 1.0 mph 4.0 mph 59% 0.00 in CLR
10:15 63.8 °F 48.7 °F 30.03 in West 2.0 mph 6.0 mph 58% 0.00 in CLR
10:30 65.0 °F 49.4 °F 30.03 in West 1.0 mph 7.0 mph 57% 0.00 in CLR
10:45 65.6 °F 48.5 °F 30.03 in WNW 2.0 mph 5.0 mph 54% 0.00 in CLR
11:00 65.9 °F 47.8 °F 30.03 in West 1.0 mph 7.0 mph 52% 0.00 in CLR
11:15 66.7 °F 49.0 °F 30.03 in West 3.0 mph 7.0 mph 53% 0.00 in CLR
11:30 67.1 °F 48.9 °F 30.03 in WNW 1.0 mph 6.0 mph 52% 0.00 in CLR
11:45 67.8 °F 49.0 °F 30.03 in Calm   6.0 mph 51% 0.00 in CLR
12:00 68.1 °F 48.2 °F 30.03 in WNW 1.0 mph 5.0 mph 49% 0.00 in CLR
12:15 68.6 °F 48.7 °F 30.02 in NNW 1.0 mph 7.0 mph 49% 0.00 in CLR
12:30 69.3 °F 48.2 °F 30.02 in West 1.0 mph 4.0 mph 47% 0.00 in CLR
12:45 70.2 °F 48.4 °F 30.01 in West 2.0 mph 6.0 mph 46% 0.00 in CLR
13:00 70.6 °F 48.8 °F 30.01 in WSW 2.0 mph 7.0 mph 46% 0.00 in CLR
13:15 72.4 °F 50.4 °F 30.01 in SW 2.0 mph 5.0 mph 46% 0.00 in CLR
13:30 74.1 °F 50.2 °F 30.00 in South 3.0 mph 7.0 mph 43% 0.00 in CLR
13:45 73.7 °F 49.1 °F 30.00 in WSW 1.0 mph 5.0 mph 42% 0.00 in CLR
14:00 74.8 °F 49.5 °F 30.00 in West 1.0 mph 9.0 mph 41% 0.00 in CLR
14:15 75.3 °F 48.6 °F 30.00 in WSW 3.0 mph 6.0 mph 39% 0.00 in CLR
14:30 74.9 °F 48.3 °F 30.00 in SW 1.0 mph 5.0 mph 39% 0.00 in CLR
14:45 74.9 °F 49.0 °F 30.00 in Calm   6.0 mph 40% 0.00 in CLR
15:00 75.9 °F 48.5 °F 29.99 in WNW 2.0 mph 6.0 mph 38% 0.00 in CLR
15:15 76.4 °F 48.2 °F 29.99 in NW 1.0 mph 5.0 mph 37% 0.00 in CLR
15:30 76.8 °F 47.1 °F 29.98 in NNW 1.0 mph 7.0 mph 35% 0.00 in CLR
15:45 78.0 °F 48.2 °F 29.98 in SW 1.0 mph 6.0 mph 35% 0.00 in CLR
16:00 77.9 °F 48.0 °F 29.98 in North 1.0 mph 6.0 mph 35% 0.00 in CLR
16:15 78.7 °F 48.0 °F 29.97 in Calm   5.0 mph 34% 0.00 in CLR
16:30 78.6 °F 47.1 °F 29.97 in NNW 1.0 mph 5.0 mph 33% 0.00 in CLR
16:45 77.9 °F 48.0 °F 29.96 in Calm   4.0 mph 35% 0.00 in CLR
17:00 76.8 °F 47.8 °F 29.96 in Calm   4.0 mph 36% 0.00 in CLR
17:15 77.6 °F 48.5 °F 29.96 in Calm   2.0 mph 36% 0.00 in CLR
17:30 77.1 °F 48.8 °F 29.96 in Calm   2.0 mph 37% 0.00 in CLR
17:45 76.5 °F 49.7 °F 29.96 in Calm   1.0 mph 39% 0.00 in CLR
18:00 77.1 °F 49.6 °F 29.95 in Calm   1.0 mph 38% 0.00 in CLR
18:15 76.9 °F 48.6 °F 29.95 in Calm   4.0 mph 37% 0.00 in CLR
18:30 75.9 °F 49.2 °F 29.95 in Calm   2.0 mph 39% 0.00 in CLR
18:45 78.0 °F 48.9 °F 29.95 in Calm   1.0 mph 36% 0.00 in CLR
19:00 77.0 °F 48.7 °F 29.95 in Calm   1.0 mph 37% 0.00 in CLR
19:15 77.0 °F 48.7 °F 29.96 in Calm   2.0 mph 37% 0.00 in SCT
19:30 76.1 °F 47.2 °F 29.96 in SW 1.0 mph 4.0 mph 36% 0.00 in SCT
19:45 74.7 °F 46.7 °F 29.96 in Calm   4.0 mph 37% 0.00 in SCT
20:00 73.2 °F 46.1 °F 29.97 in Calm   2.0 mph 38% 0.00 in SCT
20:15 71.7 °F 45.4 °F 29.97 in Calm   2.0 mph 39% 0.00 in FEW
20:30 69.3 °F 47.7 °F 29.97 in Calm     46% 0.00 in FEW
20:45 66.2 °F 48.1 °F 29.98 in Calm     52% 0.00 in FEW
21:00 64.6 °F 47.6 °F 29.99 in Calm     54% 0.00 in FEW
21:15 66.1 °F 45.8 °F 29.99 in Calm   1.0 mph 48% 0.00 in CLR
21:30 63.8 °F 47.4 °F 29.99 in Calm   1.0 mph 55% 0.00 in CLR
21:45 63.1 °F 47.2 °F 29.99 in Calm     56% 0.00 in CLR
22:00 62.9 °F 47.4 °F 29.99 in Calm     57% 0.00 in CLR
22:15 63.2 °F 46.2 °F 29.99 in Calm   1.0 mph 54% 0.00 in CLR
22:30 63.5 °F 46.6 °F 29.99 in Calm   1.0 mph 54% 0.00 in CLR
22:45 63.4 °F 45.4 °F 29.99 in Calm   2.0 mph 52% 0.00 in CLR
23:00 61.9 °F 47.9 °F 29.99 in Calm     60% 0.00 in CLR
23:15 60.7 °F 46.3 °F 30.00 in Calm     59% 0.00 in CLR
23:30 60.1 °F 46.6 °F 30.00 in Calm     61% 0.00 in CLR
23:45 59.7 °F 45.8 °F 30.00 in Calm     60% 0.00 in CLR
TarryTown NY Weather
Compliments of Weather Underground - 1.5 mb